KSBY/SBY METAR and TAF weather

Enter ICAO airport designator
Station Type Date Time Source
KSBY METAR 2021/09/24 05:23 UTC NOAA

KSBY 240523Z AUTO 35005KT 10SM SCT005 OVC060 18/17 A2999 RMK AO2 T01780167


Station Type Date Time Source
KSBY Decoded METAR 2021/09/24 05:23 UTC NOAA

SALISBURY-WICOMICO CTY REG, MD, United States (KSBY) 38-20N 075-30W 19M
Sep 24, 2021 - 01:23 AM EDT / 2021.09.24 0523 UTC
Wind: from the N (350 degrees) at 6 MPH (5 KT):0
Visibility: 10 mile(s):0
Sky conditions: overcast
Temperature: 64.0 F (17.8 C)
Dew Point: 62.1 F (16.7 C)
Relative Humidity: 93%
Pressure (altimeter): 29.99 in. Hg (1015 hPa)
ob: KSBY 240523Z AUTO 35005KT 10SM SCT005 OVC060 18/17 A2999 RMK AO2 T01780167
cycle: 5

Station Type Date Time Source
KSBY TAF 2021/09/24 06:22 UTC NOAA

TAF KSBY 240520Z 2406/2506 00000KT P6SM SCT005 BKN050
TEMPO 2406/2408 OVC005
FM240800 35005KT P6SM BKN035
FM241200 36007KT P6SM FEW040
FM241500 35008KT P6SM SKC

Example: see airport list